Thompson, ND (58278)

9:13 PM CDT on August 01, 2014 (GMT -0500)
KNDGRAND8 Elev 830 ft | 47.94 °N, 97.06 °W | Change Station

Current weather conditions updated 11 seconds ago

Scattered Clouds
Scattered Clouds
73.6 °F
Feels Like 76 °F
N
1.4
Wind Variable Wind from NE
Gusts 2.0 mph

Tomorrow is forecast to be Warmer than today. Isolated thunderstorms.

Today
High -- | Low -- °F
--% Chance of Precip.
Yesterday
High -- | Low -- °F
Precip. -- in
6:05 AM 9:03 PM
Waxing Crescent, 31% visible
Pressure 30.04 in
Visibility 8.0 miles
Clouds Scattered Clouds 25000 ft
Heat Index 76 °F
Dew Point 60 °F
Humidity 62%
Rainfall 0.00 in
Snow Depth Not available.
UV 0 out of 12
Pollen 8.00 out of 12
Air Quality Not available.
Flu Activity Not available.
METAR KGFK 020153Z 15004KT 8SM SCT250 23/17 A3004 RMK AO2 SLP171 T02330167

More Conditions Fewer Conditions

Pressure 30.04 in
Visibility 8.0 miles
Clouds Scattered Clouds 25000 ft
Heat Index 76 °F
Dew Point 60 °F
Humidity 62%
Rainfall 0.00 in
Snow Depth Not available.
UV 0 out of 12
Pollen 8.00 out of 12
Air Quality Not available.
Flu Activity Not available.
METAR KGFK 020153Z 15004KT 8SM SCT250 23/17 A3004 RMK AO2 SLP171 T02330167

More Conditions Fewer Conditions

10-Day Weather Forecast

Almanac

Astronomy

Aug. 01, 2014 Rise Set
Actual Time 6:05 AM CDT 9:03 PM CDT
Civil Twilight 5:29 AM CDT 9:39 PM CDT
Nautical Twilight 4:42 AM CDT 10:25 PM CDT
Astronomical Twilight 3:45 AM CDT 11:21 PM CDT
Moon 11:58 AM CDT (8/1) 11:19 PM CDT (8/1)
Length of Visible Light 16h 10m
Length of Day
14h 57m
Tomorrow will be 2m 42s shorter.
Waxing Crescent, 31% of the Moon is Illuminated
Today
Waxing Crescent
Aug 3
First Quarter
Aug 10
Full
Aug 17
Last Quarter
Aug 25
New

Today's Extremes

State Highs State Lows

Community

WunderPhotos

Upload Photos

1,739,805 photos uploaded!

Nearby

Snow Depth

Station Depth Elevation
No new snow has been reported.

Earthquake Activity

City Distance Mag. Time & Date
No recent earthquake activity has been reported nearby.
Minimum magnitude displayed is 2.5.

Coastal Water Temperatures

Place Temperature
No Stations Reporting

Nearby Weather Stations

Station Location Temp. Heat Index Dew Point Humidity Wind Precip. Elev Updated Type
Grand Forks, ND 73.6 °F 76 °F 60 °F 62% NE  at  1.4 mph 0.00 in / hr 830 ft 9:13 PM CDT Rapid Fire

Show More Stations Show Fewer Stations